sensor_id;sensor_type;location;lat;lon;timestamp;temperature;humidity
45319;DHT22;31057;48.498;32.260;2023-11-19T00:01:00;1.20;99.90
45319;DHT22;31057;48.498;32.260;2023-11-19T00:03:02;1.20;99.90
45319;DHT22;31057;48.498;32.260;2023-11-19T00:05:04;1.10;99.90
45319;DHT22;31057;48.498;32.260;2023-11-19T00:07:09;1.10;99.90
45319;DHT22;31057;48.498;32.260;2023-11-19T00:09:12;1.10;99.90
45319;DHT22;31057;48.498;32.260;2023-11-19T00:11:14;1.10;99.90
45319;DHT22;31057;48.498;32.260;2023-11-19T00:13:17;1.00;99.90
45319;DHT22;31057;48.498;32.260;2023-11-19T00:15:19;1.00;99.90
45319;DHT22;31057;48.498;32.260;2023-11-19T00:17:21;1.00;99.90
45319;DHT22;31057;48.498;32.260;2023-11-19T00:19:23;1.00;99.90
45319;DHT22;31057;48.498;32.260;2023-11-19T00:21:25;1.00;99.90
45319;DHT22;31057;48.498;32.260;2023-11-19T00:23:30;1.00;99.90
45319;DHT22;31057;48.498;32.260;2023-11-19T00:25:32;1.00;99.90
45319;DHT22;31057;48.498;32.260;2023-11-19T00:27:34;1.00;99.90
45319;DHT22;31057;48.498;32.260;2023-11-19T00:29:36;1.00;99.90
45319;DHT22;31057;48.498;32.260;2023-11-19T00:31:38;1.00;99.90
45319;DHT22;31057;48.498;32.260;2023-11-19T00:33:40;0.90;99.90
45319;DHT22;31057;48.498;32.260;2023-11-19T00:35:45;1.00;99.90
45319;DHT22;31057;48.498;32.260;2023-11-19T00:37:47;0.90;99.90
45319;DHT22;31057;48.498;32.260;2023-11-19T00:39:50;0.90;99.90
45319;DHT22;31057;48.498;32.260;2023-11-19T00:41:53;0.80;99.90
45319;DHT22;31057;48.498;32.260;2023-11-19T00:43:55;0.80;99.90
45319;DHT22;31057;48.498;32.260;2023-11-19T00:45:57;0.80;99.90
45319;DHT22;31057;48.498;32.260;2023-11-19T00:47:59;0.80;99.90
45319;DHT22;31057;48.498;32.260;2023-11-19T00:50:02;0.80;99.90
45319;DHT22;31057;48.498;32.260;2023-11-19T00:52:04;0.90;99.90
45319;DHT22;31057;48.498;32.260;2023-11-19T00:54:08;0.90;99.90
45319;DHT22;31057;48.498;32.260;2023-11-19T00:56:10;0.80;99.90
45319;DHT22;31057;48.498;32.260;2023-11-19T00:58:14;0.90;99.90
45319;DHT22;31057;48.498;32.260;2023-11-19T01:00:16;0.90;99.90
45319;DHT22;31057;48.498;32.260;2023-11-19T01:02:22;0.80;99.90
45319;DHT22;31057;48.498;32.260;2023-11-19T01:04:24;0.80;99.90
45319;DHT22;31057;48.498;32.260;2023-11-19T01:06:27;0.80;99.90
45319;DHT22;31057;48.498;32.260;2023-11-19T01:08:29;0.80;99.90
45319;DHT22;31057;48.498;32.260;2023-11-19T01:10:31;0.80;99.90
45319;DHT22;31057;48.498;32.260;2023-11-19T01:12:33;0.80;99.90
45319;DHT22;31057;48.498;32.260;2023-11-19T01:14:36;0.80;99.90
45319;DHT22;31057;48.498;32.260;2023-11-19T01:16:38;0.80;99.90
45319;DHT22;31057;48.498;32.260;2023-11-19T01:18:40;0.80;99.90
45319;DHT22;31057;48.498;32.260;2023-11-19T01:20:42;0.90;99.90
45319;DHT22;31057;48.498;32.260;2023-11-19T01:22:44;0.90;99.90
45319;DHT22;31057;48.498;32.260;2023-11-19T01:24:46;0.90;99.90
45319;DHT22;31057;48.498;32.260;2023-11-19T01:26:48;0.90;99.90
45319;DHT22;31057;48.498;32.260;2023-11-19T01:28:50;0.80;99.90
45319;DHT22;31057;48.498;32.260;2023-11-19T01:30:54;0.80;99.90
45319;DHT22;31057;48.498;32.260;2023-11-19T01:32:56;0.80;99.90
45319;DHT22;31057;48.498;32.260;2023-11-19T01:34:58;0.70;99.90
45319;DHT22;31057;48.498;32.260;2023-11-19T01:37:00;0.70;99.90
45319;DHT22;31057;48.498;32.260;2023-11-19T01:39:02;0.80;99.90
45319;DHT22;31057;48.498;32.260;2023-11-19T01:41:06;0.70;99.90
45319;DHT22;31057;48.498;32.260;2023-11-19T01:43:08;0.70;99.90
45319;DHT22;31057;48.498;32.260;2023-11-19T01:45:27;0.70;99.90
45319;DHT22;31057;48.498;32.260;2023-11-19T01:47:30;0.70;99.90
45319;DHT22;31057;48.498;32.260;2023-11-19T01:49:33;0.70;99.90
45319;DHT22;31057;48.498;32.260;2023-11-19T01:51:35;0.70;99.90
45319;DHT22;31057;48.498;32.260;2023-11-19T01:53:38;0.70;99.90
45319;DHT22;31057;48.498;32.260;2023-11-19T01:55:40;0.60;99.90
45319;DHT22;31057;48.498;32.260;2023-11-19T01:57:43;0.60;99.90
45319;DHT22;31057;48.498;32.260;2023-11-19T01:59:45;0.70;99.90
45319;DHT22;31057;48.498;32.260;2023-11-19T02:01:47;0.60;99.90
45319;DHT22;31057;48.498;32.260;2023-11-19T02:04:01;0.60;99.90
45319;DHT22;31057;48.498;32.260;2023-11-19T02:06:04;0.60;99.90
45319;DHT22;31057;48.498;32.260;2023-11-19T02:08:07;0.60;99.90
45319;DHT22;31057;48.498;32.260;2023-11-19T02:10:09;0.60;99.90
45319;DHT22;31057;48.498;32.260;2023-11-19T02:12:16;0.60;99.90
45319;DHT22;31057;48.498;32.260;2023-11-19T02:14:18;0.50;99.90
45319;DHT22;31057;48.498;32.260;2023-11-19T02:16:25;0.40;99.90
45319;DHT22;31057;48.498;32.260;2023-11-19T02:18:27;0.40;99.90
45319;DHT22;31057;48.498;32.260;2023-11-19T02:20:30;0.40;99.90
45319;DHT22;31057;48.498;32.260;2023-11-19T02:22:31;0.40;99.90
45319;DHT22;31057;48.498;32.260;2023-11-19T02:24:33;0.40;99.90
45319;DHT22;31057;48.498;32.260;2023-11-19T02:26:42;0.40;99.90
45319;DHT22;31057;48.498;32.260;2023-11-19T02:28:47;0.40;99.90
45319;DHT22;31057;48.498;32.260;2023-11-19T02:30:49;0.40;99.90
45319;DHT22;31057;48.498;32.260;2023-11-19T02:32:58;0.40;99.90
45319;DHT22;31057;48.498;32.260;2023-11-19T02:35:02;0.30;99.90
45319;DHT22;31057;48.498;32.260;2023-11-19T02:37:07;0.30;99.90
45319;DHT22;31057;48.498;32.260;2023-11-19T02:39:09;0.30;99.90
45319;DHT22;31057;48.498;32.260;2023-11-19T02:41:14;0.30;99.90
45319;DHT22;31057;48.498;32.260;2023-11-19T02:43:16;0.30;99.90
45319;DHT22;31057;48.498;32.260;2023-11-19T02:45:18;0.30;99.90
45319;DHT22;31057;48.498;32.260;2023-11-19T02:47:20;0.30;99.90
45319;DHT22;31057;48.498;32.260;2023-11-19T02:49:23;0.30;99.90
45319;DHT22;31057;48.498;32.260;2023-11-19T02:51:25;0.30;99.90
45319;DHT22;31057;48.498;32.260;2023-11-19T02:53:32;0.30;99.90
45319;DHT22;31057;48.498;32.260;2023-11-19T02:55:34;0.30;99.90
45319;DHT22;31057;48.498;32.260;2023-11-19T02:57:40;0.30;99.90
45319;DHT22;31057;48.498;32.260;2023-11-19T02:59:49;0.30;99.90
45319;DHT22;31057;48.498;32.260;2023-11-19T03:01:51;0.40;99.90
45319;DHT22;31057;48.498;32.260;2023-11-19T03:03:55;0.30;99.90
45319;DHT22;31057;48.498;32.260;2023-11-19T03:05:59;0.40;99.90
45319;DHT22;31057;48.498;32.260;2023-11-19T03:08:01;0.40;99.90
45319;DHT22;31057;48.498;32.260;2023-11-19T03:10:03;0.40;99.90
45319;DHT22;31057;48.498;32.260;2023-11-19T03:12:07;0.40;99.90
45319;DHT22;31057;48.498;32.260;2023-11-19T03:14:10;0.40;99.90
45319;DHT22;31057;48.498;32.260;2023-11-19T03:16:12;0.30;99.90
45319;DHT22;31057;48.498;32.260;2023-11-19T03:18:14;0.40;99.90
45319;DHT22;31057;48.498;32.260;2023-11-19T03:20:16;0.30;99.90
45319;DHT22;31057;48.498;32.260;2023-11-19T03:22:18;0.30;99.90
45319;DHT22;31057;48.498;32.260;2023-11-19T03:24:20;0.40;99.90
45319;DHT22;31057;48.498;32.260;2023-11-19T03:26:22;0.40;99.90
45319;DHT22;31057;48.498;32.260;2023-11-19T03:28:24;0.40;99.90
45319;DHT22;31057;48.498;32.260;2023-11-19T03:30:26;0.40;99.90
45319;DHT22;31057;48.498;32.260;2023-11-19T03:32:33;0.40;99.90
45319;DHT22;31057;48.498;32.260;2023-11-19T03:34:36;0.40;99.90
45319;DHT22;31057;48.498;32.260;2023-11-19T03:36:39;0.40;99.90
45319;DHT22;31057;48.498;32.260;2023-11-19T03:38:41;0.40;99.90
45319;DHT22;31057;48.498;32.260;2023-11-19T03:40:44;0.30;99.90
45319;DHT22;31057;48.498;32.260;2023-11-19T03:42:46;0.30;99.90
45319;DHT22;31057;48.498;32.260;2023-11-19T03:44:48;0.30;99.90
45319;DHT22;31057;48.498;32.260;2023-11-19T03:46:51;0.30;99.90
45319;DHT22;31057;48.498;32.260;2023-11-19T03:48:53;0.30;99.90
45319;DHT22;31057;48.498;32.260;2023-11-19T03:50:55;0.40;99.90
45319;DHT22;31057;48.498;32.260;2023-11-19T03:52:57;0.40;99.90
45319;DHT22;31057;48.498;32.260;2023-11-19T03:54:59;0.30;99.90
45319;DHT22;31057;48.498;32.260;2023-11-19T03:57:01;0.30;99.90
45319;DHT22;31057;48.498;32.260;2023-11-19T03:59:05;0.30;99.90
45319;DHT22;31057;48.498;32.260;2023-11-19T04:01:11;0.30;99.90
45319;DHT22;31057;48.498;32.260;2023-11-19T04:03:15;0.40;99.90
45319;DHT22;31057;48.498;32.260;2023-11-19T04:05:17;0.30;99.90
45319;DHT22;31057;48.498;32.260;2023-11-19T04:07:20;0.30;99.90
45319;DHT22;31057;48.498;32.260;2023-11-19T04:09:23;0.30;99.90
45319;DHT22;31057;48.498;32.260;2023-11-19T04:11:24;0.30;99.90
45319;DHT22;31057;48.498;32.260;2023-11-19T04:13:26;0.30;99.90
45319;DHT22;31057;48.498;32.260;2023-11-19T04:15:28;0.30;99.90
45319;DHT22;31057;48.498;32.260;2023-11-19T04:17:30;0.30;99.90
45319;DHT22;31057;48.498;32.260;2023-11-19T04:19:32;0.30;99.90
45319;DHT22;31057;48.498;32.260;2023-11-19T04:21:34;0.30;99.90
45319;DHT22;31057;48.498;32.260;2023-11-19T04:23:36;0.30;99.90
45319;DHT22;31057;48.498;32.260;2023-11-19T04:25:38;0.30;99.90
45319;DHT22;31057;48.498;32.260;2023-11-19T04:27:40;0.30;99.90
45319;DHT22;31057;48.498;32.260;2023-11-19T04:29:42;0.30;99.90
45319;DHT22;31057;48.498;32.260;2023-11-19T04:31:45;0.30;99.90
45319;DHT22;31057;48.498;32.260;2023-11-19T04:33:47;0.30;99.90
45319;DHT22;31057;48.498;32.260;2023-11-19T04:35:49;0.30;99.90
45319;DHT22;31057;48.498;32.260;2023-11-19T04:37:51;0.20;99.90
45319;DHT22;31057;48.498;32.260;2023-11-19T04:39:53;0.30;99.90
45319;DHT22;31057;48.498;32.260;2023-11-19T04:41:55;0.30;99.90
45319;DHT22;31057;48.498;32.260;2023-11-19T04:43:57;0.30;99.90
45319;DHT22;31057;48.498;32.260;2023-11-19T04:45:59;0.30;99.90
45319;DHT22;31057;48.498;32.260;2023-11-19T04:48:01;0.20;99.90
45319;DHT22;31057;48.498;32.260;2023-11-19T04:50:03;0.20;99.90
45319;DHT22;31057;48.498;32.260;2023-11-19T04:52:05;0.10;99.90
45319;DHT22;31057;48.498;32.260;2023-11-19T04:54:07;0.20;99.90
45319;DHT22;31057;48.498;32.260;2023-11-19T04:56:11;0.20;99.90
45319;DHT22;31057;48.498;32.260;2023-11-19T04:58:13;0.20;99.90
45319;DHT22;31057;48.498;32.260;2023-11-19T05:00:15;0.20;99.90
45319;DHT22;31057;48.498;32.260;2023-11-19T05:02:18;0.20;99.90
45319;DHT22;31057;48.498;32.260;2023-11-19T05:04:20;0.20;99.90
45319;DHT22;31057;48.498;32.260;2023-11-19T05:06:22;0.20;99.90
45319;DHT22;31057;48.498;32.260;2023-11-19T05:08:24;0.10;99.90
45319;DHT22;31057;48.498;32.260;2023-11-19T05:10:26;0.20;99.90
45319;DHT22;31057;48.498;32.260;2023-11-19T05:12:28;0.20;99.90
45319;DHT22;31057;48.498;32.260;2023-11-19T05:14:30;0.20;99.90
45319;DHT22;31057;48.498;32.260;2023-11-19T05:16:32;0.20;99.90
45319;DHT22;31057;48.498;32.260;2023-11-19T05:18:34;0.20;99.90
45319;DHT22;31057;48.498;32.260;2023-11-19T05:20:36;0.20;99.90
45319;DHT22;31057;48.498;32.260;2023-11-19T05:22:41;0.20;99.90
45319;DHT22;31057;48.498;32.260;2023-11-19T05:24:43;0.20;99.90
45319;DHT22;31057;48.498;32.260;2023-11-19T05:26:46;0.20;99.90
45319;DHT22;31057;48.498;32.260;2023-11-19T05:28:49;0.20;99.90
45319;DHT22;31057;48.498;32.260;2023-11-19T05:30:51;0.20;99.90
45319;DHT22;31057;48.498;32.260;2023-11-19T05:32:53;0.20;99.90
45319;DHT22;31057;48.498;32.260;2023-11-19T05:34:55;0.20;99.90
45319;DHT22;31057;48.498;32.260;2023-11-19T05:36:57;0.20;99.90
45319;DHT22;31057;48.498;32.260;2023-11-19T05:38:59;0.20;99.90
45319;DHT22;31057;48.498;32.260;2023-11-19T05:41:01;0.20;99.90
45319;DHT22;31057;48.498;32.260;2023-11-19T05:43:03;0.20;99.90
45319;DHT22;31057;48.498;32.260;2023-11-19T05:45:05;0.20;99.90
45319;DHT22;31057;48.498;32.260;2023-11-19T05:47:07;0.20;99.90
45319;DHT22;31057;48.498;32.260;2023-11-19T05:49:10;0.20;99.90
45319;DHT22;31057;48.498;32.260;2023-11-19T05:51:12;0.20;99.90
45319;DHT22;31057;48.498;32.260;2023-11-19T05:53:16;0.20;99.90
45319;DHT22;31057;48.498;32.260;2023-11-19T05:55:18;0.20;99.90
45319;DHT22;31057;48.498;32.260;2023-11-19T05:57:21;0.20;99.90
45319;DHT22;31057;48.498;32.260;2023-11-19T05:59:25;0.20;99.90
45319;DHT22;31057;48.498;32.260;2023-11-19T06:01:27;0.20;99.90
45319;DHT22;31057;48.498;32.260;2023-11-19T06:03:31;0.20;99.90
45319;DHT22;31057;48.498;32.260;2023-11-19T06:05:33;0.20;99.90
45319;DHT22;31057;48.498;32.260;2023-11-19T06:07:35;0.10;99.90
45319;DHT22;31057;48.498;32.260;2023-11-19T06:09:38;0.10;99.90
45319;DHT22;31057;48.498;32.260;2023-11-19T06:11:40;0.00;99.90
45319;DHT22;31057;48.498;32.260;2023-11-19T06:13:42;0.00;99.90
45319;DHT22;31057;48.498;32.260;2023-11-19T06:15:45;0.00;99.90
45319;DHT22;31057;48.498;32.260;2023-11-19T06:17:47;0.10;99.90
45319;DHT22;31057;48.498;32.260;2023-11-19T06:19:49;0.10;99.90
45319;DHT22;31057;48.498;32.260;2023-11-19T06:21:51;0.00;99.90
45319;DHT22;31057;48.498;32.260;2023-11-19T06:23:53;0.10;99.90
45319;DHT22;31057;48.498;32.260;2023-11-19T06:25:56;0.00;99.90
45319;DHT22;31057;48.498;32.260;2023-11-19T06:27:58;-0.10;99.90
45319;DHT22;31057;48.498;32.260;2023-11-19T06:30:01;0.00;99.90
45319;DHT22;31057;48.498;32.260;2023-11-19T06:32:03;0.00;99.90
45319;DHT22;31057;48.498;32.260;2023-11-19T06:34:17;0.10;99.90
45319;DHT22;31057;48.498;32.260;2023-11-19T06:36:19;0.10;99.90
45319;DHT22;31057;48.498;32.260;2023-11-19T06:38:20;0.00;99.90
45319;DHT22;31057;48.498;32.260;2023-11-19T06:40:22;0.10;99.90
45319;DHT22;31057;48.498;32.260;2023-11-19T06:42:24;0.10;99.90
45319;DHT22;31057;48.498;32.260;2023-11-19T06:44:26;0.00;99.90
45319;DHT22;31057;48.498;32.260;2023-11-19T06:46:28;0.10;99.90
45319;DHT22;31057;48.498;32.260;2023-11-19T06:48:30;0.10;99.90
45319;DHT22;31057;48.498;32.260;2023-11-19T06:50:33;0.10;99.90
45319;DHT22;31057;48.498;32.260;2023-11-19T06:52:35;0.10;99.90
45319;DHT22;31057;48.498;32.260;2023-11-19T06:54:39;0.10;99.90
45319;DHT22;31057;48.498;32.260;2023-11-19T06:56:41;0.20;99.90
45319;DHT22;31057;48.498;32.260;2023-11-19T06:58:43;0.20;99.90
45319;DHT22;31057;48.498;32.260;2023-11-19T07:00:45;0.10;99.90
45319;DHT22;31057;48.498;32.260;2023-11-19T07:02:49;0.20;99.90
45319;DHT22;31057;48.498;32.260;2023-11-19T07:04:53;0.10;99.90
45319;DHT22;31057;48.498;32.260;2023-11-19T07:06:56;0.00;99.90
45319;DHT22;31057;48.498;32.260;2023-11-19T07:08:59;0.00;99.90
45319;DHT22;31057;48.498;32.260;2023-11-19T07:11:00;0.10;99.90
45319;DHT22;31057;48.498;32.260;2023-11-19T07:13:02;0.10;99.90
45319;DHT22;31057;48.498;32.260;2023-11-19T07:15:06;0.10;99.90
45319;DHT22;31057;48.498;32.260;2023-11-19T07:17:08;0.00;99.90
45319;DHT22;31057;48.498;32.260;2023-11-19T07:19:13;0.10;99.90
45319;DHT22;31057;48.498;32.260;2023-11-19T07:21:15;0.20;99.90
45319;DHT22;31057;48.498;32.260;2023-11-19T07:23:17;0.10;99.90
45319;DHT22;31057;48.498;32.260;2023-11-19T07:25:19;0.20;99.90
45319;DHT22;31057;48.498;32.260;2023-11-19T07:27:20;0.00;99.90
45319;DHT22;31057;48.498;32.260;2023-11-19T07:29:22;0.10;99.90
45319;DHT22;31057;48.498;32.260;2023-11-19T07:31:27;0.10;99.90
45319;DHT22;31057;48.498;32.260;2023-11-19T07:33:29;0.00;99.90
45319;DHT22;31057;48.498;32.260;2023-11-19T07:35:31;0.10;99.90
45319;DHT22;31057;48.498;32.260;2023-11-19T07:37:33;0.10;99.90
45319;DHT22;31057;48.498;32.260;2023-11-19T07:39:35;0.10;99.90
45319;DHT22;31057;48.498;32.260;2023-11-19T07:41:39;0.10;99.90
45319;DHT22;31057;48.498;32.260;2023-11-19T07:43:45;0.10;99.90
45319;DHT22;31057;48.498;32.260;2023-11-19T07:45:48;0.20;99.90
45319;DHT22;31057;48.498;32.260;2023-11-19T07:47:50;0.10;99.90
45319;DHT22;31057;48.498;32.260;2023-11-19T07:49:53;0.20;99.90
45319;DHT22;31057;48.498;32.260;2023-11-19T07:51:55;0.10;99.90
45319;DHT22;31057;48.498;32.260;2023-11-19T07:53:57;0.20;99.90
45319;DHT22;31057;48.498;32.260;2023-11-19T07:55:59;0.20;99.90
45319;DHT22;31057;48.498;32.260;2023-11-19T07:58:03;0.10;99.90
45319;DHT22;31057;48.498;32.260;2023-11-19T08:00:05;0.10;99.90
45319;DHT22;31057;48.498;32.260;2023-11-19T08:02:08;0.20;99.90
45319;DHT22;31057;48.498;32.260;2023-11-19T08:04:11;0.20;99.90
45319;DHT22;31057;48.498;32.260;2023-11-19T08:06:13;0.20;99.90
45319;DHT22;31057;48.498;32.260;2023-11-19T08:08:15;0.20;99.90
45319;DHT22;31057;48.498;32.260;2023-11-19T08:10:17;0.10;99.90
45319;DHT22;31057;48.498;32.260;2023-11-19T08:12:19;0.30;99.90
45319;DHT22;31057;48.498;32.260;2023-11-19T08:14:21;0.50;99.90
45319;DHT22;31057;48.498;32.260;2023-11-19T08:16:23;0.40;99.90
45319;DHT22;31057;48.498;32.260;2023-11-19T08:18:25;0.20;99.90
45319;DHT22;31057;48.498;32.260;2023-11-19T08:20:27;0.20;99.90
45319;DHT22;31057;48.498;32.260;2023-11-19T08:22:28;0.20;99.90
45319;DHT22;31057;48.498;32.260;2023-11-19T08:24:30;0.20;99.90
45319;DHT22;31057;48.498;32.260;2023-11-19T08:26:33;0.30;99.90
45319;DHT22;31057;48.498;32.260;2023-11-19T08:28:36;0.20;99.90
45319;DHT22;31057;48.498;32.260;2023-11-19T08:30:39;0.40;99.90
45319;DHT22;31057;48.498;32.260;2023-11-19T08:32:43;0.20;99.90
45319;DHT22;31057;48.498;32.260;2023-11-19T08:34:47;0.30;99.90
45319;DHT22;31057;48.498;32.260;2023-11-19T08:36:51;0.20;99.90
45319;DHT22;31057;48.498;32.260;2023-11-19T08:38:56;0.30;99.90
45319;DHT22;31057;48.498;32.260;2023-11-19T08:40:58;0.30;99.90
45319;DHT22;31057;48.498;32.260;2023-11-19T08:43:02;0.30;99.90
45319;DHT22;31057;48.498;32.260;2023-11-19T08:45:04;0.10;99.90
45319;DHT22;31057;48.498;32.260;2023-11-19T08:47:06;0.30;99.90
45319;DHT22;31057;48.498;32.260;2023-11-19T08:49:08;0.20;99.90
45319;DHT22;31057;48.498;32.260;2023-11-19T08:51:10;0.20;99.90
45319;DHT22;31057;48.498;32.260;2023-11-19T08:53:12;0.30;99.90
45319;DHT22;31057;48.498;32.260;2023-11-19T08:55:14;0.20;99.90
45319;DHT22;31057;48.498;32.260;2023-11-19T08:57:16;0.20;99.90
45319;DHT22;31057;48.498;32.260;2023-11-19T08:59:18;0.20;99.90
45319;DHT22;31057;48.498;32.260;2023-11-19T09:01:20;0.20;99.90
45319;DHT22;31057;48.498;32.260;2023-11-19T09:03:22;0.30;99.90
45319;DHT22;31057;48.498;32.260;2023-11-19T09:05:25;0.20;99.90
45319;DHT22;31057;48.498;32.260;2023-11-19T09:07:26;0.20;99.90
45319;DHT22;31057;48.498;32.260;2023-11-19T09:09:29;0.30;99.90
45319;DHT22;31057;48.498;32.260;2023-11-19T09:11:32;0.30;99.90
45319;DHT22;31057;48.498;32.260;2023-11-19T09:13:34;0.20;99.90
45319;DHT22;31057;48.498;32.260;2023-11-19T09:15:36;0.20;99.90
45319;DHT22;31057;48.498;32.260;2023-11-19T09:17:38;0.30;99.90
45319;DHT22;31057;48.498;32.260;2023-11-19T09:19:40;0.30;99.90
45319;DHT22;31057;48.498;32.260;2023-11-19T09:21:42;0.30;99.90
45319;DHT22;31057;48.498;32.260;2023-11-19T09:23:44;0.20;99.90
45319;DHT22;31057;48.498;32.260;2023-11-19T09:25:46;0.30;99.90
45319;DHT22;31057;48.498;32.260;2023-11-19T09:27:48;0.20;99.90
45319;DHT22;31057;48.498;32.260;2023-11-19T09:29:51;0.30;99.90
45319;DHT22;31057;48.498;32.260;2023-11-19T09:31:59;0.30;99.90
45319;DHT22;31057;48.498;32.260;2023-11-19T09:34:01;0.30;99.90
45319;DHT22;31057;48.498;32.260;2023-11-19T09:36:03;0.20;99.90
45319;DHT22;31057;48.498;32.260;2023-11-19T09:38:06;0.30;99.90
45319;DHT22;31057;48.498;32.260;2023-11-19T09:40:08;0.20;99.90
45319;DHT22;31057;48.498;32.260;2023-11-19T09:42:13;0.20;99.90
45319;DHT22;31057;48.498;32.260;2023-11-19T09:44:15;0.20;99.90
45319;DHT22;31057;48.498;32.260;2023-11-19T09:46:21;0.20;99.90
45319;DHT22;31057;48.498;32.260;2023-11-19T09:48:26;0.30;99.90
45319;DHT22;31057;48.498;32.260;2023-11-19T09:50:28;0.40;99.90
45319;DHT22;31057;48.498;32.260;2023-11-19T09:52:30;0.40;99.90
45319;DHT22;31057;48.498;32.260;2023-11-19T09:54:32;0.30;99.90
45319;DHT22;31057;48.498;32.260;2023-11-19T09:56:36;0.40;99.90
45319;DHT22;31057;48.498;32.260;2023-11-19T09:58:40;0.30;99.90
45319;DHT22;31057;48.498;32.260;2023-11-19T10:00:43;0.30;99.90
45319;DHT22;31057;48.498;32.260;2023-11-19T10:02:54;0.30;99.90
45319;DHT22;31057;48.498;32.260;2023-11-19T10:04:59;0.30;99.90
45319;DHT22;31057;48.498;32.260;2023-11-19T10:07:03;0.30;99.90
45319;DHT22;31057;48.498;32.260;2023-11-19T10:09:06;0.30;99.90
45319;DHT22;31057;48.498;32.260;2023-11-19T10:11:08;0.40;99.90
45319;DHT22;31057;48.498;32.260;2023-11-19T10:13:12;0.40;99.90
45319;DHT22;31057;48.498;32.260;2023-11-19T10:15:24;0.40;99.90
45319;DHT22;31057;48.498;32.260;2023-11-19T10:17:31;0.30;99.90
45319;DHT22;31057;48.498;32.260;2023-11-19T10:19:34;0.30;99.90
45319;DHT22;31057;48.498;32.260;2023-11-19T10:21:37;0.30;99.90
45319;DHT22;31057;48.498;32.260;2023-11-19T10:23:52;0.40;99.90
45319;DHT22;31057;48.498;32.260;2023-11-19T10:26:03;0.40;99.90
45319;DHT22;31057;48.498;32.260;2023-11-19T10:28:07;0.50;99.90
45319;DHT22;31057;48.498;32.260;2023-11-19T10:30:09;0.40;99.90
45319;DHT22;31057;48.498;32.260;2023-11-19T10:32:13;0.40;99.90
45319;DHT22;31057;48.498;32.260;2023-11-19T10:34:28;0.50;99.90
45319;DHT22;31057;48.498;32.260;2023-11-19T10:36:38;0.50;99.90
45319;DHT22;31057;48.498;32.260;2023-11-19T10:38:55;0.50;99.90
45319;DHT22;31057;48.498;32.260;2023-11-19T10:40:57;0.40;99.90
45319;DHT22;31057;48.498;32.260;2023-11-19T10:43:04;0.40;99.90
45319;DHT22;31057;48.498;32.260;2023-11-19T10:45:22;0.50;99.90
45319;DHT22;31057;48.498;32.260;2023-11-19T10:47:25;0.50;99.90
45319;DHT22;31057;48.498;32.260;2023-11-19T10:49:30;0.50;99.90
45319;DHT22;31057;48.498;32.260;2023-11-19T10:51:33;0.50;99.90
45319;DHT22;31057;48.498;32.260;2023-11-19T10:53:37;0.50;99.90
45319;DHT22;31057;48.498;32.260;2023-11-19T10:55:47;0.50;99.90
45319;DHT22;31057;48.498;32.260;2023-11-19T10:57:49;0.50;99.90
45319;DHT22;31057;48.498;32.260;2023-11-19T10:59:55;0.60;99.90
45319;DHT22;31057;48.498;32.260;2023-11-19T11:02:03;0.60;99.90
45319;DHT22;31057;48.498;32.260;2023-11-19T11:04:14;0.50;99.90
45319;DHT22;31057;48.498;32.260;2023-11-19T11:06:17;0.60;99.90
45319;DHT22;31057;48.498;32.260;2023-11-19T11:21:02;0.60;99.90
45319;DHT22;31057;48.498;32.260;2023-11-19T11:32:34;0.50;99.90
45319;DHT22;31057;48.498;32.260;2023-11-19T11:39:03;0.40;99.90
45319;DHT22;31057;48.498;32.260;2023-11-19T11:43:53;0.50;99.90
45319;DHT22;31057;48.498;32.260;2023-11-19T11:45:57;0.50;99.90
45319;DHT22;31057;48.498;32.260;2023-11-19T11:48:15;0.60;99.90
45319;DHT22;31057;48.498;32.260;2023-11-19T11:50:19;0.50;99.90
45319;DHT22;31057;48.498;32.260;2023-11-19T11:52:20;0.60;99.90
45319;DHT22;31057;48.498;32.260;2023-11-19T11:56:24;0.40;99.90
45319;DHT22;31057;48.498;32.260;2023-11-19T11:58:35;0.40;99.90
45319;DHT22;31057;48.498;32.260;2023-11-19T12:00:40;0.30;99.90
45319;DHT22;31057;48.498;32.260;2023-11-19T12:02:44;0.30;99.90
45319;DHT22;31057;48.498;32.260;2023-11-19T12:04:48;0.30;99.90
45319;DHT22;31057;48.498;32.260;2023-11-19T12:07:04;0.40;99.90
45319;DHT22;31057;48.498;32.260;2023-11-19T12:09:07;0.40;99.90
45319;DHT22;31057;48.498;32.260;2023-11-19T12:11:10;0.30;99.90
45319;DHT22;31057;48.498;32.260;2023-11-19T12:13:12;0.30;99.90
45319;DHT22;31057;48.498;32.260;2023-11-19T12:15:15;0.30;99.90
45319;DHT22;31057;48.498;32.260;2023-11-19T12:17:46;0.30;99.90
45319;DHT22;31057;48.498;32.260;2023-11-19T12:19:51;0.30;99.90
45319;DHT22;31057;48.498;32.260;2023-11-19T12:21:53;0.40;99.90
45319;DHT22;31057;48.498;32.260;2023-11-19T12:23:58;0.30;99.90
45319;DHT22;31057;48.498;32.260;2023-11-19T12:26:04;0.30;99.90
45319;DHT22;31057;48.498;32.260;2023-11-19T12:28:12;0.30;99.90
45319;DHT22;31057;48.498;32.260;2023-11-19T12:30:32;0.40;99.90
45319;DHT22;31057;48.498;32.260;2023-11-19T12:32:41;0.30;99.90
45319;DHT22;31057;48.498;32.260;2023-11-19T12:34:45;0.30;99.90
45319;DHT22;31057;48.498;32.260;2023-11-19T12:36:47;0.30;99.90
45319;DHT22;31057;48.498;32.260;2023-11-19T12:38:49;0.30;99.90
45319;DHT22;31057;48.498;32.260;2023-11-19T12:41:06;0.30;99.90
45319;DHT22;31057;48.498;32.260;2023-11-19T12:43:08;0.40;99.90
45319;DHT22;31057;48.498;32.260;2023-11-19T12:45:10;0.30;99.90
45319;DHT22;31057;48.498;32.260;2023-11-19T12:47:12;0.20;99.90
45319;DHT22;31057;48.498;32.260;2023-11-19T12:49:15;0.20;99.90
45319;DHT22;31057;48.498;32.260;2023-11-19T12:51:17;0.20;99.90
45319;DHT22;31057;48.498;32.260;2023-11-19T12:53:20;0.20;99.90
45319;DHT22;31057;48.498;32.260;2023-11-19T12:55:30;0.20;99.90
45319;DHT22;31057;48.498;32.260;2023-11-19T12:57:40;0.20;99.90
45319;DHT22;31057;48.498;32.260;2023-11-19T12:59:42;0.20;99.90
45319;DHT22;31057;48.498;32.260;2023-11-19T13:01:57;0.10;99.90
45319;DHT22;31057;48.498;32.260;2023-11-19T13:04:00;0.20;99.90
45319;DHT22;31057;48.498;32.260;2023-11-19T13:06:11;0.20;99.90
45319;DHT22;31057;48.498;32.260;2023-11-19T13:08:13;0.20;99.90
45319;DHT22;31057;48.498;32.260;2023-11-19T13:10:15;0.20;99.90
45319;DHT22;31057;48.498;32.260;2023-11-19T13:12:20;0.20;99.90
45319;DHT22;31057;48.498;32.260;2023-11-19T13:14:22;0.20;99.90
45319;DHT22;31057;48.498;32.260;2023-11-19T13:16:26;0.20;99.90
45319;DHT22;31057;48.498;32.260;2023-11-19T13:18:28;0.20;99.90
45319;DHT22;31057;48.498;32.260;2023-11-19T13:20:45;0.20;99.90
45319;DHT22;31057;48.498;32.260;2023-11-19T13:22:56;0.20;99.90
45319;DHT22;31057;48.498;32.260;2023-11-19T13:24:59;0.20;99.90
45319;DHT22;31057;48.498;32.260;2023-11-19T13:27:02;0.20;99.90
45319;DHT22;31057;48.498;32.260;2023-11-19T13:29:05;0.20;99.90
45319;DHT22;31057;48.498;32.260;2023-11-19T13:31:08;0.20;99.90